Białystok-Krywlany Airport

EPBK · podlaskie, Polska

Historia METAR EPBK · Białystok-Krywlany Airport

Poniżej widzisz METAR-y z ostatnich kilku dni. Wybierz rok, aby przeglądać starsze METAR-y, począwszy od roku 2007.

17 czerwca 2024

Czas Kod Pogoda Temp. Widoczność Sufit Wiatr METAR/SPECI
11:00
V
22 °C 10 km+ 6.600 ft 300° 300° 5 - 11 kt METAR UMMG 170900Z 30003G06MPS 9999 FEW026 BKN066 22/16 Q1012 NOSIG
10:00
V
22 °C 10 km+ 6.600 ft 270° 270° 5 kt METAR UMMG 170800Z 27003MPS 9999 FEW023 BKN066 22/15 Q1011 NOSIG
09:00
V
22 °C 10 km+ - 300° 300° 3 kt METAR UMMG 170700Z 30002MPS CAVOK 22/14 Q1011 NOSIG
08:00
V
21 °C 10 km+ - 300° 300° 3 kt METAR UMMG 170600Z 30002MPS CAVOK 21/14 Q1011 NOSIG
07:00
V
17 °C 10 km+ - 360° 360° 0 kt METAR UMMG 170500Z 00000MPS CAVOK 17/15 Q1012 NOSIG
06:00
V
15 °C 9 km - 360° 360° 0 kt METAR UMMG 170400Z 00000MPS 9000 NSC 15/13 Q1011 NOSIG
05:00
V
14 °C 9 km - 360° 360° 0 kt METAR UMMG 170300Z 00000MPS 9000 NSC 14/13 Q1011 NOSIG

16 czerwca 2024

Czas Kod Pogoda Temp. Widoczność Sufit Wiatr METAR/SPECI
15:00
V
23 °C 10 km+ 4.000 ft 110° 110° 5 kt METAR UMMG 161300Z 11003MPS 9999 BKN040 23/09 Q1012 NOSIG
14:00
V
23 °C 10 km+ 3.600 ft 130° 130° 9 kt METAR UMMG 161200Z 13005MPS 9999 BKN036 23/09 Q1012 NOSIG
13:00
V
23 °C 10 km+ 3.300 ft 110° 110° 7 kt METAR UMMG 161100Z 11004MPS 9999 BKN033 23/08 Q1012 NOSIG
12:00
V
23 °C 10 km+ 3.300 ft 120° 120° 5 - 11 kt METAR UMMG 161000Z 12003G06MPS 9999 BKN033 23/08 Q1013 NOSIG
11:00
M
23 °C 10 km+ 3.000 ft 100° 100° 5 kt METAR UMMG 160900Z 10003MPS 9999 BKN030 23/10 Q1013 NOSIG
10:00
V
22 °C 10 km+ - 120° 120° 5 kt METAR UMMG 160800Z 12003MPS 9999 SCT030 22/11 Q1013 NOSIG
09:00
V
21 °C 10 km+ - 150° 150° 5 kt METAR UMMG 160700Z 15003MPS 9999 FEW026 SCT100 21/10 Q1014 NOSIG
08:00
V
19 °C 10 km+ - 150° 150° 3 kt METAR UMMG 160600Z 15002MPS CAVOK 19/11 Q1014 NOSIG
07:00
V
15 °C 10 km+ - 360° 360° 0 kt METAR UMMG 160500Z 00000MPS CAVOK 15/11 Q1014 NOSIG
06:00
V
13 °C 10 km+ - 360° 360° 0 kt METAR UMMG 160400Z 00000MPS CAVOK 13/10 Q1014 NOSIG
05:00
V
12 °C 10 km+ - 360° 360° 0 kt METAR UMMG 160300Z 00000MPS CAVOK 12/09 Q1014 NOSIG

15 czerwca 2024

Czas Kod Pogoda Temp. Widoczność Sufit Wiatr METAR/SPECI
15:00
V
22 °C 10 km+ 6.600 ft 150° 150° 3 kt METAR UMMG 151300Z 15002MPS 9999 SCT046 BKN066 22/08 Q1013 NOSIG
14:00
V
22 °C 10 km+ 4.500 ft 120° 120° 3 kt METAR UMMG 151200Z 12002MPS 9999 BKN045 22/09 Q1014 NOSIG
13:00
V
21 °C 10 km+ 4.000 ft Var Var 1 kt METAR UMMG 151100Z VRB01MPS 9999 BKN040 21/09 Q1015 NOSIG
12:00
V
21 °C 10 km+ 3.600 ft Var Var 1 kt METAR UMMG 151000Z VRB01MPS 9999 BKN036 BKN066 21/10 Q1015 NOSIG
11:00
M
20 °C 10 km+ 3.000 ft 110° 110° 3 kt METAR UMMG 150900Z 11002MPS 9999 BKN030 BKN066 20/11 Q1015 NOSIG
10:00
M
19 °C 10 km+ 2.800 ft 120° 120° 3 kt METAR UMMG 150800Z 12002MPS 9999 BKN028 BKN066 19/12 Q1015 NOSIG
09:00
V
17 °C 10 km+ 6.600 ft 130° 130° 3 kt METAR UMMG 150700Z 13002MPS 9999 SCT023 BKN066 17/12 Q1015 NOSIG
08:00
V
15 °C 9 km - 120° 120° 3 kt METAR UMMG 150600Z 12002MPS 9000 NSC 15/12 Q1015 NOSIG
Zgłoś zmianę